Time;durP1;ratioP1;P1;durP2;ratioP2;P2;SDS_P1;SDS_P2;PMS_P1;PMS_P2;Temp;Humidity;BMP_temperature;BMP_pressure;BME280_temperature;BME280_humidity;BME280_pressure;Samples;Min_cycle;Max_cycle;Signal;HPM_P1;HPM_P2
2022/09/09 04:47:37;;;;;;;7.25;4.57;;;;;;;15.34;100.00;100132.16;6591765;26;224515;-89
2022/09/09 04:50:42;;;;;;;5.10;4.60;;;;;;;15.35;100.00;100129.34;6607068;26;34249;-89
2022/09/09 05:04:55;;;;;;;4.62;4.22;;;;;;;15.59;100.00;100128.50;6608479;26;20044;-91
2022/09/09 05:08:12;;;;;;;8.07;5.12;;;;;;;15.84;100.00;100132.00;6608704;26;34513;-90
2022/09/09 05:11:18;;;;;;;7.85;5.05;;;;;;;15.72;100.00;100146.28;6586995;26;32768;-91
2022/09/09 05:14:22;;;;;;;6.80;6.10;;;;;;;15.71;100.00;100145.44;6607283;26;33585;-90
2022/09/09 05:17:25;;;;;;;7.00;4.47;;;;;;;15.68;100.00;100140.31;6612515;27;34539;-90
2022/09/09 05:20:28;;;;;;;5.75;3.90;;;;;;;16.41;100.00;100153.53;6613375;27;33921;-89
2022/09/09 05:23:31;;;;;;;6.43;4.60;;;;;;;17.03;100.00;100149.69;6592981;27;33732;-89
2022/09/09 05:26:34;;;;;;;8.23;4.35;;;;;;;17.05;100.00;100145.06;6606067;27;34481;-89
2022/09/09 05:29:38;;;;;;;5.07;4.57;;;;;;;17.07;100.00;100145.78;6585990;27;34000;-89
2022/09/09 05:32:41;;;;;;;5.57;3.80;;;;;;;17.19;100.00;100149.28;6608176;27;35005;-89
2022/09/09 05:35:44;;;;;;;6.87;3.35;;;;;;;17.61;100.00;100159.31;6587166;27;33502;-89
2022/09/09 05:38:47;;;;;;;4.50;4.10;;;;;;;17.66;100.00;100151.72;6605444;27;33861;-92
2022/09/09 05:41:51;;;;;;;5.40;3.83;;;;;;;17.78;100.00;100152.53;6605762;27;33852;-92
2022/09/09 05:44:54;;;;;;;6.30;3.78;;;;;;;17.75;100.00;100148.25;6612516;27;34132;-91
2022/09/09 05:47:57;;;;;;;4.50;4.10;;;;;;;17.91;100.00;100155.03;6614617;27;34902;-92
2022/09/09 05:51:01;;;;;;;4.65;3.72;;;;;;;18.02;100.00;100154.12;6606327;27;34599;-88
2022/09/09 05:54:04;;;;;;;5.43;4.10;;;;;;;17.87;100.00;100157.12;6605942;27;33755;-88
2022/09/09 05:57:08;;;;;;;4.32;3.80;;;;;;;17.69;100.00;100150.62;6607370;27;34098;-90
2022/09/09 06:03:50;;;;;;;6.10;3.78;;;;;;;17.50;100.00;100154.84;6601326;26;20574;-87
2022/09/09 06:06:53;;;;;;;4.20;3.60;;;;;;;17.94;100.00;100153.94;6605223;27;33934;-88
2022/09/09 06:09:56;;;;;;;6.18;3.92;;;;;;;18.02;100.00;100144.25;6585529;27;33702;-89
2022/09/09 06:12:59;;;;;;;4.15;3.75;;;;;;;18.21;100.00;100161.50;6603908;27;34871;-88
2022/09/09 06:16:02;;;;;;;5.80;3.85;;;;;;;18.16;100.00;100161.88;6586641;27;32634;-88
2022/09/09 06:19:06;;;;;;;4.07;3.78;;;;;;;18.38;100.00;100168.09;6606273;27;34014;-88
2022/09/09 06:22:11;;;;;;;4.93;3.92;;;;;;;18.63;100.00;100165.94;6606490;27;33964;-87
2022/09/09 06:25:14;;;;;;;4.75;3.20;;;;;;;18.49;100.00;100161.78;6606665;27;34535;-88
2022/09/09 06:28:19;;;;;;;8.55;3.70;;;;;;;18.91;100.00;100165.38;6606521;27;34463;-88
2022/09/09 06:31:24;;;;;;;3.45;3.22;;;;;;;19.21;100.00;100171.72;6607330;27;33657;-89
2022/09/09 06:34:32;;;;;;;5.22;3.20;;;;;;;19.03;100.00;100168.81;6587967;27;32272;-86
2022/09/09 06:37:36;;;;;;;4.15;2.80;;;;;;;19.05;100.00;100169.56;6586435;27;32720;-87
2022/09/09 06:40:39;;;;;;;4.15;2.75;;;;;;;19.38;100.00;100179.13;6606371;27;33627;-87
2022/09/09 06:43:42;;;;;;;3.22;2.92;;;;;;;19.56;97.65;100175.72;6606848;27;34209;-87
2022/09/09 06:46:47;;;;;;;3.92;2.50;;;;;;;19.19;100.00;100170.97;6606560;27;33906;-88
2022/09/09 06:49:50;;;;;;;3.35;2.70;;;;;;;19.28;100.00;100169.31;6606786;27;34194;-88
2022/09/09 06:52:53;;;;;;;3.75;2.65;;;;;;;19.18;100.00;100171.97;6606973;27;34819;-87
2022/09/09 06:55:56;;;;;;;6.40;2.90;;;;;;;19.14;99.86;100171.41;6606943;27;33824;-89
2022/09/09 06:59:02;;;;;;;3.22;2.20;;;;;;;19.43;98.10;100170.62;6587177;27;33215;-88
2022/09/09 07:02:05;;;;;;;2.62;2.42;;;;;;;19.45;97.02;100165.94;6606473;27;34322;-88
2022/09/09 07:05:09;;;;;;;3.15;2.53;;;;;;;19.45;98.39;100167.81;6585771;27;33158;-85
2022/09/09 07:08:12;;;;;;;2.85;2.65;;;;;;;19.26;97.73;100183.75;6585908;27;33716;-85
2022/09/09 07:11:15;;;;;;;5.10;2.92;;;;;;;19.54;96.95;100185.78;6586166;27;32716;-85
2022/09/09 07:14:19;;;;;;;3.10;2.80;;;;;;;19.65;95.87;100190.16;6586464;27;32221;-85
2022/09/09 07:17:22;;;;;;;3.33;2.83;;;;;;;19.21;99.10;100187.84;6586243;27;33139;-86
2022/09/09 07:20:26;;;;;;;2.92;2.72;;;;;;;18.78;99.98;100193.31;6607387;27;33498;-88
2022/09/09 07:23:40;;;;;;;4.07;2.70;;;;;;;18.50;100.00;100182.28;6607296;27;33949;-86
2022/09/09 07:26:46;;;;;;;3.87;2.60;;;;;;;19.52;98.94;100177.84;6606766;27;33477;-87
2022/09/09 07:29:50;;;;;;;4.28;2.75;;;;;;;20.78;91.97;100181.53;6587360;27;33362;-87
2022/09/09 07:32:53;;;;;;;2.80;2.60;;;;;;;20.90;87.83;100184.06;6606492;27;34541;-87
2022/09/09 07:36:06;;;;;;;4.45;2.47;;;;;;;22.18;82.35;100186.75;6587049;27;32520;-90
2022/09/09 07:39:13;;;;;;;2.40;2.20;;;;;;;23.23;76.08;100190.38;6605957;27;33981;-85
2022/09/09 07:42:17;;;;;;;3.85;2.30;;;;;;;24.80;66.76;100190.63;6586180;27;33020;-86
2022/09/09 07:45:19;;;;;;;2.60;2.40;;;;;;;24.07;70.17;100192.28;6605843;27;34249;-86
2022/09/09 07:48:23;;;;;;;5.78;2.80;;;;;;;23.37;74.87;100194.34;6585581;27;33337;-87
2022/09/09 07:51:31;;;;;;;2.22;2.00;;;;;;;24.18;73.46;100201.91;6606187;27;33751;-90
2022/09/09 08:16:41;;;;;;;1.80;1.70;;;;;;;27.22;55.91;100199.47;6604196;26;35331;-90
2022/09/09 08:23:45;;;;;;;2.03;1.90;;;;;;;27.75;53.20;100194.81;6601345;26;20051;-90
2022/09/09 08:37:58;;;;;;;2.78;2.03;;;;;;;26.05;61.73;100194.34;6615468;27;20039;-92
2022/09/09 10:01:46;;;;;;;5.75;1.52;;;;;;;29.05;45.65;100167.25;6604568;26;20071;-90
2022/09/09 10:08:47;;;;;;;1.40;1.30;;;;;;;29.61;42.31;100178.12;6608644;26;34332;-89
2022/09/09 10:12:13;;;;;;;2.12;1.10;;;;;;;30.60;42.86;100166.56;6587076;26;32703;-89
2022/09/09 10:15:35;;;;;;;2.55;1.40;;;;;;;32.53;37.04;100155.69;6586739;26;33475;-90
2022/09/09 10:19:04;;;;;;;1.00;1.00;;;;;;;31.84;38.19;100161.16;6588190;27;33488;-92
2022/09/09 10:26:17;;;;;;;2.35;1.40;;;;;;;31.50;37.92;100161.38;6598339;26;20072;-91
2022/09/09 10:52:50;;;;;;;3.65;1.10;;;;;;;34.35;33.34;100155.03;6581012;27;20067;-89
2022/09/09 10:59:48;;;;;;;1.17;1.17;;;;;;;36.26;27.28;100151.44;6609484;27;20397;-88
2022/09/09 11:02:56;;;;;;;1.40;1.27;;;;;;;33.80;31.21;100151.50;6602756;26;34125;-89
2022/09/09 11:06:06;;;;;;;1.50;1.40;;;;;;;31.63;34.23;100140.41;6587525;26;32477;-90
2022/09/09 11:09:18;;;;;;;1.40;1.30;;;;;;;31.33;36.83;100148.19;6601514;26;34137;-90
2022/09/09 11:16:09;;;;;;;2.37;1.27;;;;;;;30.61;38.13;100140.88;6607678;26;20063;-87
2022/09/09 11:19:50;;;;;;;1.67;1.15;;;;;;;31.09;36.30;100137.97;6586426;27;32914;-88
2022/09/09 11:23:05;;;;;;;1.58;1.12;;;;;;;32.27;33.90;100130.19;6607383;27;33673;-89
2022/09/09 11:26:15;;;;;;;2.80;1.40;;;;;;;31.00;36.00;100127.28;6609431;27;34059;-88
2022/09/09 11:29:53;;;;;;;2.25;1.48;;;;;;;30.54;37.55;100129.09;6608010;26;34285;-89
2022/09/09 11:33:23;;;;;;;1.10;0.98;;;;;;;29.60;39.68;100132.72;6603620;26;34903;-89
2022/09/09 11:36:52;;;;;;;1.42;1.10;;;;;;;29.25;39.69;100127.41;6589548;27;32905;-88
2022/09/09 11:40:16;;;;;;;1.58;1.12;;;;;;;29.53;40.50;100130.00;6607868;27;34408;-89
2022/09/09 11:43:44;;;;;;;1.50;1.40;;;;;;;29.38;40.59;100123.84;6605664;27;34534;-90
2022/09/09 11:46:51;;;;;;;1.40;1.30;;;;;;;28.47;42.66;100124.72;6607872;27;33985;-89
2022/09/09 11:49:55;;;;;;;1.02;1.02;;;;;;;28.69;40.84;100124.63;6586584;27;33163;-88
2022/09/09 11:53:13;;;;;;;2.28;1.20;;;;;;;28.84;39.26;100108.13;6607667;27;34653;-88
2022/09/09 11:56:43;;;;;;;1.12;1.00;;;;;;;28.89;41.15;100107.53;6585455;27;34852;-88
2022/09/09 11:59:54;;;;;;;1.35;1.00;;;;;;;29.38;39.31;100104.72;6602645;27;33858;-88
2022/09/09 12:02:57;;;;;;;3.28;1.40;;;;;;;29.26;38.54;100110.78;6588877;27;33995;-89
2022/09/09 12:06:11;;;;;;;1.00;0.93;;;;;;;28.40;40.75;100112.94;6602022;26;34421;-88
2022/09/09 12:09:39;;;;;;;1.65;1.00;;;;;;;27.37;42.50;100108.72;6586223;27;32566;-88
2022/09/09 12:12:41;;;;;;;1.02;0.93;;;;;;;26.83;42.48;100108.06;6607091;27;33677;-87
2022/09/09 12:15:56;;;;;;;1.10;1.10;;;;;;;27.37;42.69;100106.84;6589289;27;34368;-87
2022/09/09 12:19:21;;;;;;;1.67;1.17;;;;;;;27.64;42.47;100115.28;6586276;27;34039;-87
2022/09/09 12:22:34;;;;;;;1.27;1.17;;;;;;;27.59;42.84;100131.38;6605648;27;35419;-92
2022/09/09 12:25:56;;;;;;;1.10;1.00;;;;;;;27.28;43.04;100136.06;6587640;27;33245;-88
2022/09/09 12:29:19;;;;;;;1.98;1.10;;;;;;;27.14;42.40;100129.63;6607762;26;33766;-88
2022/09/09 12:32:26;;;;;;;3.95;1.20;;;;;;;26.91;43.59;100119.72;6607197;27;34450;-89
2022/09/09 12:35:31;;;;;;;2.05;1.30;;;;;;;27.23;41.58;100114.03;6607896;27;35000;-88
2022/09/09 12:38:39;;;;;;;2.58;1.23;;;;;;;26.85;44.45;100106.03;6588575;27;33132;-87
2022/09/09 12:41:56;;;;;;;1.40;1.15;;;;;;;27.47;42.22;100100.22;6604890;27;34372;-89
2022/09/09 12:45:02;;;;;;;6.40;1.20;;;;;;;27.60;41.01;100103.09;6586837;27;33713;-87
2022/09/09 12:48:12;;;;;;;1.10;1.00;;;;;;;27.72;41.03;100095.25;6606501;27;34353;-87
2022/09/09 12:51:43;;;;;;;2.00;1.00;;;;;;;27.77;41.28;100095.50;6586545;27;34148;-87
2022/09/09 12:54:47;;;;;;;3.08;1.40;;;;;;;27.22;41.01;100089.72;6584231;27;34136;-87
2022/09/09 12:57:51;;;;;;;1.10;1.10;;;;;;;26.82;42.12;100093.66;6586166;27;32889;-88
2022/09/09 13:00:56;;;;;;;1.25;1.25;;;;;;;26.48;42.04;100081.47;6605545;27;33994;-87
2022/09/09 13:03:59;;;;;;;1.98;1.20;;;;;;;26.72;42.42;100084.94;6606409;27;34341;-88
2022/09/09 13:07:07;;;;;;;3.22;1.52;;;;;;;26.96;42.37;100078.34;6607607;27;33973;-87
2022/09/09 13:10:14;;;;;;;2.83;1.20;;;;;;;27.07;43.14;100065.25;6620136;27;34407;-90
2022/09/09 13:13:36;;;;;;;1.50;1.40;;;;;;;26.66;42.35;100066.66;6595894;27;35100;-87
2022/09/09 13:16:41;;;;;;;1.85;1.20;;;;;;;26.56;42.23;100051.47;6609287;27;34250;-87
2022/09/09 13:19:46;;;;;;;1.33;1.12;;;;;;;26.83;41.89;100054.50;6605640;27;35126;-86
2022/09/09 13:22:50;;;;;;;10.15;1.48;;;;;;;26.96;41.97;100050.28;6605582;27;35232;-87
2022/09/09 13:25:55;;;;;;;1.20;1.10;;;;;;;27.00;42.07;100051.59;6586387;27;32798;-87
2022/09/09 13:29:19;;;;;;;0.98;0.88;;;;;;;26.93;41.63;100042.50;6605911;27;33638;-87
2022/09/09 13:32:24;;;;;;;1.35;1.10;;;;;;;27.14;40.66;100036.22;6586253;27;32885;-86
2022/09/09 13:35:28;;;;;;;1.35;1.20;;;;;;;26.87;40.16;100034.06;6607567;27;34115;-88
2022/09/09 13:38:50;;;;;;;1.40;1.30;;;;;;;26.20;44.47;100036.75;6588672;27;32629;-88
2022/09/09 13:41:53;;;;;;;2.50;1.10;;;;;;;26.17;44.76;100047.16;6588642;27;32231;-89
2022/09/09 13:44:58;;;;;;;1.30;1.12;;;;;;;26.58;41.48;100037.66;6600854;26;32682;-88
2022/09/09 13:48:09;;;;;;;2.25;1.17;;;;;;;26.56;42.75;100039.75;6608148;27;33985;-88
2022/09/09 13:51:37;;;;;;;1.35;1.20;;;;;;;26.62;40.47;100044.44;6588280;27;33905;-89
2022/09/09 13:54:40;;;;;;;1.20;1.10;;;;;;;26.53;42.53;100034.66;6590551;27;33351;-90
2022/09/09 13:57:54;;;;;;;1.20;1.10;;;;;;;26.64;40.96;100029.59;6608759;27;33487;-90
2022/09/09 14:00:57;;;;;;;1.15;1.02;;;;;;;26.37;43.22;100033.87;6604043;27;34812;-88
2022/09/09 14:04:15;;;;;;;1.45;1.08;;;;;;;26.34;42.17;100021.50;6608748;26;34053;-89
2022/09/09 14:07:18;;;;;;;1.58;1.20;;;;;;;26.84;41.86;100014.56;6590281;26;34075;-89
2022/09/09 14:33:35;;;;;;;2.50;1.60;;;;;;;25.70;45.67;99998.41;6606302;26;20091;-90
2022/09/09 14:36:38;;;;;;;1.30;1.20;;;;;;;25.59;45.67;100001.56;6580483;26;33751;-90
